Mill River, Massachusetts
Current Conditions -  °F | °C
As of 3:54 AM on Monday 20 Oct 2014 (Local Time) from KPSF Reporting Station
Clear Clear  
Wind Chill: 27°   Ceiling: Unl
Heat Index: 34°   Visibility: 10mi
Dew Point: 29°   Wind: 8mph
Humidity: 82%   Direction: 270°W
Pressure: 29.99"   Gusts: NA
Location:  42.11°N, 73.26°W
Report Text: KPSF 200754Z AUTO 27007KT 10SM CLR 01/M02 A2999 RMK AO2 SLP158 T00111017
Loading
Personal Weather Stations






























Interactive Weather Map
Tropical Storm Tracking
New forecast layout! Learn more

10-Day Weather Forecast

Advertisements
Track Severe Weather on mobile